createdAt,value
2017-12-22T00:01:43.051Z,7.97
2017-12-22T00:04:12.686Z,5.90
2017-12-22T00:06:42.139Z,6.07
2017-12-22T00:09:11.960Z,7.63
2017-12-22T00:11:41.467Z,4.67
2017-12-22T00:14:11.130Z,9.80
2017-12-22T00:16:40.665Z,5.90
2017-12-22T00:19:10.542Z,6.90
2017-12-22T00:21:40.172Z,10.83
2017-12-22T00:24:09.649Z,6.73
2017-12-22T00:26:40.278Z,6.73
2017-12-22T00:29:09.768Z,8.20
2017-12-22T00:31:40.040Z,10.57
2017-12-22T00:34:09.618Z,4.50
2017-12-22T00:36:39.084Z,3.33
2017-12-22T00:39:08.685Z,5.83
2017-12-22T00:41:38.448Z,6.20
2017-12-22T00:44:08.003Z,4.43
2017-12-22T00:46:37.475Z,2.43
2017-12-22T00:49:06.966Z,3.53
2017-12-22T00:51:36.502Z,3.60
2017-12-22T00:54:05.980Z,4.50
2017-12-22T00:56:35.487Z,6.93
2017-12-22T00:59:04.972Z,7.97
2017-12-22T01:01:35.480Z,7.53
2017-12-22T01:04:05.167Z,11.13
2017-12-22T01:06:34.619Z,7.97
2017-12-22T01:09:04.846Z,3.60
2017-12-22T01:11:34.303Z,3.33
2017-12-22T01:14:04.063Z,9.90
2017-12-22T01:16:37.692Z,11.93
2017-12-22T01:19:12.503Z,9.67
2017-12-22T01:21:42.471Z,6.07
2017-12-22T01:24:11.924Z,10.93
2017-12-22T01:26:41.346Z,3.83
2017-12-22T01:29:11.421Z,6.87
2017-12-22T01:31:40.880Z,9.80
2017-12-22T01:34:10.520Z,8.33
2017-12-22T01:36:40.713Z,4.20
2017-12-22T01:39:10.215Z,4.57
2017-12-22T01:41:39.700Z,6.93
2017-12-22T01:44:09.205Z,7.67
2017-12-22T01:46:38.660Z,6.40
2017-12-22T01:49:08.154Z,4.63
2017-12-22T01:51:37.606Z,6.27
2017-12-22T01:54:07.079Z,16.53
2017-12-22T01:56:37.334Z,10.67
2017-12-22T01:59:06.846Z,10.23
2017-12-22T02:01:37.145Z,10.00
2017-12-22T02:04:06.784Z,10.00
2017-12-22T02:06:36.340Z,10.50
2017-12-22T02:09:06.616Z,9.47
2017-12-22T02:11:36.704Z,5.50
2017-12-22T02:14:06.154Z,12.00
2017-12-22T02:16:37.770Z,7.93
2017-12-22T02:19:07.225Z,8.67
2017-12-22T02:21:36.695Z,8.13
2017-12-22T02:24:06.229Z,12.27
2017-12-22T02:26:37.178Z,8.97
2017-12-22T02:29:06.606Z,9.77
2017-12-22T02:31:36.053Z,7.10
2017-12-22T02:34:05.467Z,10.73
2017-12-22T02:36:34.919Z,7.80
2017-12-22T02:39:05.039Z,8.40
2017-12-22T02:41:34.757Z,15.23
2017-12-22T02:44:04.662Z,12.03
2017-12-22T02:46:39.853Z,8.13
2017-12-22T02:49:09.276Z,10.30
2017-12-22T02:51:38.734Z,3.53
2017-12-22T02:54:08.194Z,8.90
2017-12-22T02:56:38.390Z,9.60
2017-12-22T02:59:07.850Z,7.10
2017-12-22T03:01:37.320Z,9.17
2017-12-22T03:04:07.506Z,5.77
2017-12-22T03:06:36.995Z,8.63
2017-12-22T03:09:06.438Z,5.13
2017-12-22T03:11:35.878Z,10.60
2017-12-22T03:14:05.527Z,4.67
2017-12-22T03:16:34.955Z,9.10
2017-12-22T03:19:05.549Z,5.90
2017-12-22T03:21:35.077Z,7.70
2017-12-22T03:24:04.557Z,7.00
2017-12-22T03:26:34.150Z,3.70
2017-12-22T03:29:03.744Z,5.43
2017-12-22T03:31:33.371Z,6.17
2017-12-22T03:34:02.826Z,4.60
2017-12-22T03:36:32.272Z,7.60
2017-12-22T03:39:01.744Z,3.67
2017-12-22T03:41:31.383Z,6.87
2017-12-22T03:44:01.286Z,3.90
2017-12-22T03:46:30.715Z,5.33
2017-12-22T03:49:00.127Z,3.27
2017-12-22T03:51:29.579Z,5.00
2017-12-22T03:53:59.189Z,3.73
2017-12-22T03:56:28.702Z,9.30
2017-12-22T03:58:58.135Z,6.50
2017-12-22T04:01:27.690Z,4.90
2017-12-22T04:03:57.476Z,4.07
2017-12-22T04:06:26.923Z,3.30
2017-12-22T04:08:56.342Z,7.80
2017-12-22T04:11:25.918Z,9.03
2017-12-22T04:13:55.910Z,4.03
2017-12-22T04:16:25.419Z,8.27
2017-12-22T04:18:55.106Z,3.83
2017-12-22T04:21:24.656Z,4.90
2017-12-22T04:23:54.302Z,5.50
2017-12-22T04:26:24.001Z,5.10
2017-12-22T04:28:53.458Z,4.77
2017-12-22T04:31:23.650Z,5.03
2017-12-22T04:33:53.215Z,4.63
2017-12-22T04:36:22.849Z,5.10
2017-12-22T04:38:53.394Z,3.43
2017-12-22T04:41:24.480Z,6.67
2017-12-22T04:43:53.911Z,4.97
2017-12-22T04:46:23.319Z,4.60
2017-12-22T04:48:52.809Z,4.83
2017-12-22T04:51:22.295Z,6.23
2017-12-22T04:53:51.722Z,4.73
2017-12-22T04:56:21.241Z,7.57
2017-12-22T04:58:50.767Z,4.20
2017-12-22T05:01:20.517Z,4.23
2017-12-22T05:03:49.999Z,3.63
2017-12-22T05:06:20.241Z,5.50
2017-12-22T05:08:49.767Z,4.53
2017-12-22T05:11:19.199Z,6.97
2017-12-22T05:13:48.699Z,4.83
2017-12-22T05:16:18.975Z,4.50
2017-12-22T05:18:48.724Z,7.27
2017-12-22T05:21:18.139Z,2.43
2017-12-22T05:23:47.715Z,3.03
2017-12-22T05:26:17.261Z,10.10
2017-12-22T05:28:46.750Z,5.00
2017-12-22T05:31:16.436Z,9.07
2017-12-22T05:33:45.891Z,10.00
2017-12-22T05:36:15.476Z,4.50
2017-12-22T05:38:44.890Z,8.27
2017-12-22T05:41:14.367Z,8.93
2017-12-22T05:43:43.813Z,4.33
2017-12-22T05:46:13.318Z,1.80
2017-12-22T05:48:42.755Z,4.63
2017-12-22T05:51:12.195Z,6.40
2017-12-22T05:53:41.909Z,6.13
2017-12-22T05:56:11.338Z,2.70
2017-12-22T05:58:41.008Z,3.50
2017-12-22T06:01:10.642Z,3.77
2017-12-22T06:03:40.185Z,11.50
2017-12-22T06:06:09.743Z,6.57
2017-12-22T06:08:39.202Z,7.27
2017-12-22T06:11:09.460Z,2.73
2017-12-22T06:13:41.191Z,4.00
2017-12-22T06:16:10.656Z,10.10
2017-12-22T06:18:40.123Z,6.00
2017-12-22T06:21:09.816Z,7.53
2017-12-22T06:23:39.640Z,4.40
2017-12-22T06:26:09.217Z,5.10
2017-12-22T06:28:38.980Z,5.33
2017-12-22T06:31:08.486Z,6.50
2017-12-22T06:33:39.632Z,2.90
2017-12-22T06:36:09.060Z,7.20
2017-12-22T06:38:38.627Z,3.63
2017-12-22T06:41:08.413Z,4.50
2017-12-22T06:43:37.890Z,3.50
2017-12-22T06:46:07.543Z,4.50
2017-12-22T06:48:37.028Z,7.50
2017-12-22T06:51:06.527Z,5.67
2017-12-22T06:53:36.411Z,8.03
2017-12-22T06:56:07.423Z,5.07
2017-12-22T06:58:38.771Z,2.33
2017-12-22T07:01:08.435Z,3.27
2017-12-22T07:03:38.063Z,4.87
2017-12-22T07:06:07.578Z,8.87
2017-12-22T07:08:37.110Z,5.87
2017-12-22T07:11:06.852Z,2.80
2017-12-22T07:13:36.619Z,4.00
2017-12-22T07:16:06.310Z,1.53
2017-12-22T07:18:35.766Z,3.63
2017-12-22T07:21:06.206Z,6.63
2017-12-22T07:23:35.645Z,5.20
2017-12-22T07:26:05.350Z,6.07
2017-12-22T07:28:34.983Z,2.93
2017-12-22T07:31:04.668Z,3.03
2017-12-22T07:33:34.306Z,3.17
2017-12-22T07:36:03.770Z,5.20
2017-12-22T07:38:33.236Z,4.53
2017-12-22T07:41:03.506Z,3.57
2017-12-22T07:43:33.716Z,6.40
2017-12-22T07:46:03.170Z,2.30
2017-12-22T07:48:33.594Z,5.20
2017-12-22T07:51:03.260Z,3.87
2017-12-22T07:53:32.866Z,1.60
2017-12-22T07:56:02.885Z,6.07
2017-12-22T07:58:32.518Z,9.10
2017-12-22T08:01:02.780Z,5.33
2017-12-22T08:03:32.267Z,4.67
2017-12-22T08:06:01.761Z,6.03
2017-12-22T08:08:31.237Z,4.30
2017-12-22T08:11:00.678Z,4.83
2017-12-22T08:13:30.232Z,8.60
2017-12-22T08:15:59.707Z,4.00
2017-12-22T08:18:29.198Z,4.23
2017-12-22T08:20:59.407Z,5.50
2017-12-22T08:23:28.887Z,3.40
2017-12-22T08:25:58.509Z,3.73
2017-12-22T08:28:27.978Z,6.73
2017-12-22T08:30:57.468Z,6.87
2017-12-22T08:33:27.091Z,6.73
2017-12-22T08:35:56.570Z,3.73
2017-12-22T08:38:26.219Z,5.10
2017-12-22T08:40:55.669Z,4.40
2017-12-22T08:43:25.578Z,8.50
2017-12-22T08:45:55.196Z,4.83
2017-12-22T08:48:24.729Z,4.13
2017-12-22T08:50:54.860Z,13.40
2017-12-22T08:53:24.463Z,3.60
2017-12-22T08:55:53.914Z,7.77
2017-12-22T08:58:23.401Z,6.73
2017-12-22T09:00:53.603Z,3.50
2017-12-22T09:03:23.423Z,5.27
2017-12-22T09:05:53.819Z,2.80
2017-12-22T09:08:23.296Z,4.77
2017-12-22T09:10:52.963Z,9.13
2017-12-22T09:13:22.582Z,3.93
2017-12-22T09:15:53.229Z,2.80
2017-12-22T09:18:23.402Z,4.93
2017-12-22T09:20:53.311Z,2.53
2017-12-22T09:23:23.737Z,3.23
2017-12-22T09:25:54.198Z,8.53
2017-12-22T09:28:23.976Z,4.73
2017-12-22T09:30:53.745Z,2.57
2017-12-22T09:33:23.443Z,5.13
2017-12-22T09:35:53.129Z,3.00
2017-12-22T09:38:22.801Z,2.57
2017-12-22T09:40:52.581Z,2.70
2017-12-22T09:43:22.287Z,3.90
2017-12-22T09:45:51.796Z,4.60
2017-12-22T09:48:21.272Z,6.60
2017-12-22T09:50:50.929Z,6.87
2017-12-22T09:53:20.659Z,3.80
2017-12-22T09:55:50.300Z,5.60
2017-12-22T09:58:20.747Z,4.30
2017-12-22T10:00:50.234Z,5.53
2017-12-22T10:03:19.871Z,6.10
2017-12-22T10:05:49.665Z,4.43
2017-12-22T10:08:19.147Z,3.80
2017-12-22T10:10:50.291Z,7.80
2017-12-22T10:13:19.917Z,5.33
2017-12-22T10:15:50.341Z,11.90
2017-12-22T10:18:20.706Z,8.23
2017-12-22T10:20:50.152Z,9.83
2017-12-22T10:23:19.762Z,7.53
2017-12-22T10:25:50.091Z,8.00
2017-12-22T10:28:19.550Z,6.40
2017-12-22T10:30:49.480Z,4.17
2017-12-22T10:33:19.668Z,5.47
2017-12-22T10:35:49.412Z,7.80
2017-12-22T10:38:18.943Z,8.50
2017-12-22T10:40:49.459Z,6.77
2017-12-22T10:43:19.714Z,13.53
2017-12-22T10:45:49.962Z,9.53
2017-12-22T10:48:19.716Z,8.13
2017-12-22T10:50:49.415Z,4.90
2017-12-22T10:53:18.998Z,4.37
2017-12-22T10:55:48.475Z,7.57
2017-12-22T10:58:18.073Z,12.50
2017-12-22T11:00:47.829Z,10.73
2017-12-22T11:03:17.753Z,10.33
2017-12-22T11:05:47.579Z,2.60
2017-12-22T11:08:17.084Z,12.07
2017-12-22T11:10:47.260Z,10.67
2017-12-22T11:13:17.229Z,7.17
2017-12-22T11:15:47.091Z,8.03
2017-12-22T11:18:16.914Z,8.53
2017-12-22T11:20:46.635Z,13.53
2017-12-22T11:23:16.389Z,10.07
2017-12-22T11:25:45.965Z,11.90
2017-12-22T11:28:16.126Z,3.43
2017-12-22T11:30:46.762Z,7.73
2017-12-22T11:33:16.797Z,12.10
2017-12-22T11:35:46.517Z,9.60
2017-12-22T11:38:16.206Z,5.03
2017-12-22T11:40:45.916Z,3.90
2017-12-22T11:43:15.664Z,11.10
2017-12-22T11:45:45.891Z,5.07
2017-12-22T11:48:15.661Z,7.97
2017-12-22T11:50:45.607Z,7.20
2017-12-22T11:53:15.821Z,233.23
2017-12-22T11:55:45.738Z,129.60
2017-12-22T11:58:15.255Z,68.00
2017-12-22T12:00:45.056Z,75.57
2017-12-22T12:03:14.988Z,75.83
2017-12-22T12:05:44.679Z,87.80
2017-12-22T12:08:14.596Z,88.03
2017-12-22T12:10:44.204Z,72.50
2017-12-22T12:13:13.756Z,77.80
2017-12-22T12:15:44.555Z,60.47
2017-12-22T12:18:14.229Z,61.10
2017-12-22T12:20:44.346Z,53.87
2017-12-22T12:23:13.909Z,54.70
2017-12-22T12:25:44.014Z,50.77
2017-12-22T12:28:13.753Z,55.43
2017-12-22T12:30:44.112Z,44.67
2017-12-22T12:33:13.906Z,45.70
2017-12-22T12:35:43.738Z,53.07
2017-12-22T12:38:13.606Z,36.13
2017-12-22T12:40:43.454Z,41.20
2017-12-22T12:43:13.441Z,33.43
2017-12-22T12:45:43.073Z,37.43
2017-12-22T12:48:12.638Z,35.97
2017-12-22T12:50:42.394Z,33.20
2017-12-22T12:53:13.465Z,30.90
2017-12-22T12:55:43.022Z,37.67
2017-12-22T12:58:12.969Z,26.50
2017-12-22T13:00:42.474Z,27.40
2017-12-22T13:03:13.132Z,21.53
2017-12-22T13:05:42.599Z,18.60
2017-12-22T13:08:12.539Z,20.83
2017-12-22T13:10:43.967Z,21.63
2017-12-22T13:13:14.384Z,19.67
2017-12-22T13:15:44.973Z,26.23
2017-12-22T13:18:14.611Z,14.73
2017-12-22T13:20:45.409Z,27.23
2017-12-22T13:23:15.203Z,20.73
2017-12-22T13:25:44.788Z,17.60
2017-12-22T13:28:14.492Z,15.20
2017-12-22T13:30:44.190Z,12.70
2017-12-22T13:33:14.128Z,13.70
2017-12-22T13:35:43.948Z,16.17
2017-12-22T13:38:13.806Z,20.40
2017-12-22T13:40:43.341Z,14.83
2017-12-22T13:43:13.647Z,15.03
2017-12-22T13:45:43.181Z,13.93
2017-12-22T13:48:12.995Z,10.87
2017-12-22T13:50:42.555Z,11.43
2017-12-22T13:53:12.140Z,19.33
2017-12-22T13:55:42.450Z,11.87
2017-12-22T13:58:12.277Z,24.37
2017-12-22T14:00:43.398Z,22.37
2017-12-22T14:03:13.312Z,12.43
2017-12-22T14:05:43.129Z,19.00
2017-12-22T14:08:12.986Z,15.70
2017-12-22T14:10:42.823Z,14.90
2017-12-22T14:13:12.370Z,14.03
2017-12-22T14:15:41.905Z,16.27
2017-12-22T14:18:12.341Z,10.00
2017-12-22T14:20:42.597Z,14.90
2017-12-22T14:23:12.162Z,11.17
2017-12-22T14:25:42.580Z,20.03
2017-12-22T14:28:12.250Z,13.17
2017-12-22T14:30:41.760Z,12.33
2017-12-22T14:33:11.607Z,15.23
2017-12-22T14:35:42.504Z,14.43
2017-12-22T14:38:12.040Z,11.73
2017-12-22T14:40:41.727Z,15.87
2017-12-22T14:43:11.367Z,20.73
2017-12-22T14:45:41.077Z,10.07
2017-12-22T14:48:10.767Z,8.03
2017-12-22T14:50:41.010Z,11.10
2017-12-22T14:53:12.395Z,19.87
2017-12-22T14:55:42.015Z,10.40
2017-12-22T14:58:11.536Z,14.57
2017-12-22T15:00:41.357Z,15.40
2017-12-22T15:03:11.054Z,11.27
2017-12-22T15:05:40.936Z,7.73
2017-12-22T15:08:10.657Z,16.67
2017-12-22T15:10:40.412Z,7.43
2017-12-22T15:13:10.588Z,6.17
2017-12-22T15:15:40.063Z,8.53
2017-12-22T15:18:09.675Z,9.97
2017-12-22T15:20:39.694Z,14.60
2017-12-22T15:23:10.083Z,5.67
2017-12-22T15:25:39.605Z,7.00
2017-12-22T15:28:10.117Z,8.20
2017-12-22T15:30:40.473Z,12.73
2017-12-22T15:33:09.954Z,6.73
2017-12-22T15:35:40.484Z,8.37
2017-12-22T15:38:11.233Z,10.97
2017-12-22T15:40:42.791Z,6.70
2017-12-22T15:43:13.139Z,5.70
2017-12-22T15:45:42.916Z,15.50
2017-12-22T15:48:12.415Z,10.40
2017-12-22T15:50:42.183Z,4.90
2017-12-22T15:53:12.149Z,9.57
2017-12-22T15:55:41.973Z,7.13
2017-12-22T15:58:12.418Z,7.30
2017-12-22T16:00:42.736Z,9.37
2017-12-22T16:03:12.429Z,6.50
2017-12-22T16:05:43.620Z,4.47
2017-12-22T16:08:13.162Z,3.37
2017-12-22T16:10:42.734Z,12.83
2017-12-22T16:13:12.339Z,8.17
2017-12-22T16:15:42.033Z,13.53
2017-12-22T16:18:14.679Z,6.67
2017-12-22T16:20:44.797Z,9.50
2017-12-22T16:23:14.740Z,10.43
2017-12-22T16:25:44.434Z,6.87
2017-12-22T16:28:14.480Z,7.20
2017-12-22T16:30:44.037Z,9.43
2017-12-22T16:33:13.736Z,13.20
2017-12-22T16:35:43.623Z,12.43
2017-12-22T16:38:13.370Z,10.17
2017-12-22T16:40:42.858Z,16.77
2017-12-22T16:43:13.081Z,8.00
2017-12-22T16:45:42.682Z,10.50
2017-12-22T16:48:14.106Z,9.63
2017-12-22T16:50:43.978Z,3.60
2017-12-22T16:53:14.245Z,4.93
2017-12-22T16:55:43.954Z,9.33
2017-12-22T16:58:13.752Z,9.17
2017-12-22T17:00:43.267Z,10.17
2017-12-22T17:03:12.748Z,5.00
2017-12-22T17:05:43.061Z,5.17
2017-12-22T17:08:13.119Z,14.70
2017-12-22T17:10:43.005Z,5.13
2017-12-22T17:13:12.740Z,9.77
2017-12-22T17:15:42.510Z,9.77
2017-12-22T17:18:12.447Z,8.20
2017-12-22T17:20:42.085Z,8.63
2017-12-22T17:23:11.735Z,11.03
2017-12-22T17:25:41.698Z,16.97
2017-12-22T17:28:11.382Z,20.40
2017-12-22T17:30:41.049Z,12.27
2017-12-22T17:33:10.740Z,18.73
2017-12-22T17:35:40.886Z,33.20
2017-12-22T17:38:13.950Z,27.47
2017-12-22T17:40:44.367Z,27.10
2017-12-22T17:43:13.987Z,18.33
2017-12-22T17:45:43.959Z,16.67
2017-12-22T17:48:13.899Z,19.00
2017-12-22T17:50:43.414Z,24.07
2017-12-22T17:53:13.115Z,26.30
2017-12-22T17:55:42.844Z,19.67
2017-12-22T17:58:12.704Z,21.37
2017-12-22T18:00:42.202Z,18.10
2017-12-22T18:03:11.879Z,18.57
2017-12-22T18:05:42.560Z,21.73
2017-12-22T18:08:12.139Z,12.20
2017-12-22T18:10:42.830Z,14.33
2017-12-22T18:13:12.733Z,17.13
2017-12-22T18:15:42.314Z,11.23
2017-12-22T18:18:12.540Z,18.70
2017-12-22T18:20:42.334Z,9.80
2017-12-22T18:23:12.110Z,23.00
2017-12-22T18:25:41.908Z,16.80
2017-12-22T18:28:11.758Z,11.03
2017-12-22T18:30:41.518Z,12.60
2017-12-22T18:33:11.234Z,10.33
2017-12-22T18:35:41.009Z,8.40
2017-12-22T18:38:10.682Z,6.73
2017-12-22T18:40:40.312Z,7.37
2017-12-22T18:43:09.770Z,8.80
2017-12-22T18:45:40.035Z,8.93
2017-12-22T18:48:10.234Z,6.07
2017-12-22T18:50:39.985Z,10.63
2017-12-22T18:53:09.646Z,17.97
2017-12-22T18:55:39.401Z,9.97
2017-12-22T18:58:09.199Z,6.73
2017-12-22T19:00:39.555Z,7.00
2017-12-22T19:03:18.151Z,17.43
2017-12-22T19:05:47.992Z,12.83
2017-12-22T19:08:17.753Z,13.63
2017-12-22T19:10:48.316Z,2.90
2017-12-22T19:13:18.019Z,7.37
2017-12-22T19:15:48.272Z,11.70
2017-12-22T19:18:18.078Z,14.50
2017-12-22T19:20:47.808Z,10.53
2017-12-22T19:23:17.704Z,8.80
2017-12-22T19:25:47.397Z,7.93
2017-12-22T19:28:17.171Z,11.03
2017-12-22T19:30:46.868Z,6.17
2017-12-22T19:33:16.384Z,10.23
2017-12-22T19:35:47.268Z,5.87
2017-12-22T19:38:17.090Z,10.93
2017-12-22T19:40:46.836Z,8.60
2017-12-22T19:43:17.418Z,7.60
2017-12-22T19:45:47.025Z,5.80
2017-12-22T19:48:16.952Z,8.00
2017-12-22T19:50:46.978Z,8.70
2017-12-22T19:53:16.833Z,8.90
2017-12-22T19:55:47.608Z,11.37
2017-12-22T19:58:17.283Z,7.67
2017-12-22T20:00:46.855Z,9.40
2017-12-22T20:03:26.405Z,10.20
2017-12-22T20:05:56.354Z,19.93
2017-12-22T20:08:26.123Z,16.20
2017-12-22T20:10:56.118Z,11.53
2017-12-22T20:13:25.789Z,14.43
2017-12-22T20:15:55.731Z,11.47
2017-12-22T20:18:25.388Z,12.00
2017-12-22T20:20:55.646Z,9.10
2017-12-22T20:23:25.590Z,5.23
2017-12-22T20:25:55.080Z,4.43
2017-12-22T20:28:24.992Z,7.27
2017-12-22T20:30:55.328Z,7.07
2017-12-22T20:33:24.919Z,7.63
2017-12-22T20:35:54.622Z,14.50
2017-12-22T20:38:24.259Z,4.30
2017-12-22T20:40:54.394Z,13.03
2017-12-22T20:43:24.816Z,15.80
2017-12-22T20:45:54.339Z,10.50
2017-12-22T20:48:23.872Z,11.37
2017-12-22T20:50:53.654Z,9.50
2017-12-22T20:53:25.955Z,16.53
2017-12-22T20:55:55.628Z,6.57
2017-12-22T20:58:26.289Z,8.23
2017-12-22T21:00:56.020Z,7.10
2017-12-22T21:03:25.894Z,9.43
2017-12-22T21:05:56.602Z,13.23
2017-12-22T21:08:27.109Z,6.37
2017-12-22T21:10:58.959Z,5.20
2017-12-22T21:13:28.729Z,3.23
2017-12-22T21:15:58.385Z,7.60
2017-12-22T21:18:27.913Z,12.80
2017-12-22T21:20:58.052Z,10.23
2017-12-22T21:23:27.763Z,3.70
2017-12-22T21:25:57.447Z,7.00
2017-12-22T21:28:28.609Z,6.30
2017-12-22T21:30:58.216Z,10.27
2017-12-22T21:33:27.793Z,4.13
2017-12-22T21:35:57.443Z,12.00
2017-12-22T21:38:27.736Z,10.53
2017-12-22T21:40:57.693Z,12.43
2017-12-22T21:43:27.522Z,5.50
2017-12-22T21:45:57.443Z,5.83
2017-12-22T21:48:27.287Z,10.97
2017-12-22T21:50:57.063Z,12.33
2017-12-22T21:53:26.679Z,9.30
2017-12-22T21:55:56.408Z,5.30
2017-12-22T21:58:26.072Z,7.10
2017-12-22T22:00:55.616Z,7.20
2017-12-22T22:03:25.339Z,9.50
2017-12-22T22:05:54.836Z,6.67
2017-12-22T22:08:25.126Z,17.03
2017-12-22T22:10:55.129Z,5.27
2017-12-22T22:13:24.799Z,6.90
2017-12-22T22:15:54.287Z,8.40
2017-12-22T22:18:23.946Z,3.53
2017-12-22T22:20:54.192Z,4.63
2017-12-22T22:23:23.659Z,8.83
2017-12-22T22:25:53.476Z,10.33
2017-12-22T22:28:24.033Z,11.00
2017-12-22T22:30:53.683Z,7.50
2017-12-22T22:33:23.544Z,7.73
2017-12-22T22:35:53.086Z,6.83
2017-12-22T22:38:22.789Z,9.63
2017-12-22T22:40:52.533Z,10.03
2017-12-22T22:43:22.479Z,11.73
2017-12-22T22:45:52.478Z,17.47
2017-12-22T22:48:21.971Z,15.10
2017-12-22T22:50:51.496Z,8.60
2017-12-22T22:53:21.202Z,17.27
2017-12-22T22:55:50.841Z,15.27
2017-12-22T22:58:20.325Z,17.67
2017-12-22T23:00:49.802Z,17.10
2017-12-22T23:03:19.913Z,19.03
2017-12-22T23:05:50.622Z,11.67
2017-12-22T23:08:20.065Z,19.30
2017-12-22T23:10:49.619Z,24.17
2017-12-22T23:13:19.476Z,20.30
2017-12-22T23:15:48.960Z,19.13
2017-12-22T23:18:18.617Z,17.90
2017-12-22T23:20:49.139Z,21.17
2017-12-22T23:23:18.674Z,19.43
2017-12-22T23:25:48.195Z,17.67
2017-12-22T23:28:17.981Z,19.73
2017-12-22T23:30:47.923Z,15.67
2017-12-22T23:33:17.438Z,18.53
2017-12-22T23:35:47.143Z,24.57
2017-12-22T23:38:17.448Z,17.03
2017-12-22T23:40:47.158Z,24.43
2017-12-22T23:43:16.751Z,20.13
2017-12-22T23:45:46.449Z,21.27
2017-12-22T23:48:16.147Z,14.23
2017-12-22T23:50:46.490Z,27.00
2017-12-22T23:53:16.386Z,14.37
2017-12-22T23:55:45.843Z,20.80
2017-12-22T23:58:15.805Z,17.17
